Terminal Aerodrome Forecast
Issued by NWS

Home | Current Version | Previous Version | Text Only | Print | Product List | Glossary On
Versions: 1 2 3 4 5 6 7 8 9 10 11 12 13 14
260
FTUS43 KEAX 302335 AAB
TAFSTJ
TAF AMD
KSTJ 302335Z 3100/3124 15010KT P6SM BKN200
     FM310300 16003KT P6SM SCT250
     FM311600 18006KT P6SM VCSH BKN035
     FM312100 18005KT P6SM SHRA VCTS BKN060CB=

USA.gov is the U.S. government's official web portal to all federal, state and local government web resources and services.